createdAt,value
2023-05-10T00:00:00.618Z,48.53
2023-05-10T00:02:27.329Z,48.93
2023-05-10T00:04:53.788Z,49.10
2023-05-10T00:07:20.485Z,49.32
2023-05-10T00:09:46.858Z,49.51
2023-05-10T00:12:13.233Z,49.70
2023-05-10T00:14:39.840Z,49.59
2023-05-10T00:17:06.207Z,49.65
2023-05-10T00:19:32.838Z,49.75
2023-05-10T00:21:59.214Z,49.90
2023-05-10T00:24:25.601Z,49.88
2023-05-10T00:26:51.964Z,50.02
2023-05-10T00:29:18.888Z,50.00
2023-05-10T00:31:45.617Z,49.98
2023-05-10T00:34:12.046Z,50.05
2023-05-10T00:36:38.593Z,50.14
2023-05-10T00:39:06.487Z,50.10
2023-05-10T00:41:33.113Z,50.20
2023-05-10T00:43:59.904Z,50.18
2023-05-10T00:46:26.488Z,50.09
2023-05-10T00:48:53.060Z,50.20
2023-05-10T00:51:19.527Z,50.33
2023-05-10T00:53:46.578Z,50.47
2023-05-10T00:56:13.429Z,50.46
2023-05-10T00:58:40.376Z,50.45
2023-05-10T01:01:07.290Z,50.51
2023-05-10T01:03:33.719Z,50.40
2023-05-10T01:06:00.112Z,50.57
2023-05-10T01:08:26.864Z,50.66
2023-05-10T01:10:53.451Z,50.99
2023-05-10T01:13:27.194Z,50.99
2023-05-10T01:15:53.703Z,51.06
2023-05-10T01:18:20.985Z,51.24
2023-05-10T01:20:49.702Z,51.31
2023-05-10T01:23:34.416Z,51.34
2023-05-10T01:26:19.157Z,51.49
2023-05-10T01:29:04.614Z,51.50
2023-05-10T01:31:51.647Z,51.74
2023-05-10T01:34:26.303Z,51.66
2023-05-10T01:36:59.258Z,51.89
2023-05-10T01:39:36.819Z,52.09
2023-05-10T01:42:10.168Z,52.29
2023-05-10T01:44:40.707Z,52.49
2023-05-10T01:47:11.301Z,52.58
2023-05-10T01:49:50.670Z,52.72
2023-05-10T01:52:22.602Z,52.71
2023-05-10T01:55:09.802Z,52.85
2023-05-10T01:57:37.514Z,52.91
2023-05-10T02:00:05.022Z,53.20
2023-05-10T02:02:46.532Z,53.23
2023-05-10T02:05:16.898Z,53.23
2023-05-10T02:07:44.154Z,53.08
2023-05-10T02:10:12.156Z,53.16
2023-05-10T02:12:43.084Z,53.15
2023-05-10T02:15:11.215Z,53.35
2023-05-10T02:17:38.167Z,53.38
2023-05-10T02:20:09.280Z,53.27
2023-05-10T02:22:37.340Z,53.56
2023-05-10T02:25:04.247Z,53.53
2023-05-10T02:27:30.939Z,53.56
2023-05-10T02:29:58.332Z,53.63
2023-05-10T02:36:45.084Z,53.80
2023-05-10T02:39:13.850Z,54.15
2023-05-10T02:41:41.978Z,54.16
2023-05-10T02:44:09.986Z,53.92
2023-05-10T02:46:38.069Z,53.94
2023-05-10T02:49:04.945Z,54.19
2023-05-10T02:51:34.108Z,54.26
2023-05-10T02:54:21.139Z,54.26
2023-05-10T02:56:51.355Z,54.32
2023-05-10T02:59:17.798Z,54.59
2023-05-10T03:01:44.277Z,54.80
2023-05-10T03:04:10.667Z,54.86
2023-05-10T03:06:37.521Z,54.88
2023-05-10T03:09:04.500Z,55.07
2023-05-10T03:11:30.811Z,55.02
2023-05-10T03:14:05.690Z,54.99
2023-05-10T03:16:53.223Z,55.20
2023-05-10T03:19:26.250Z,55.42
2023-05-10T03:21:54.184Z,55.35
2023-05-10T03:24:22.694Z,55.37
2023-05-10T03:26:50.784Z,55.41
2023-05-10T03:29:18.475Z,55.53
2023-05-10T03:31:44.957Z,55.53
2023-05-10T03:34:11.638Z,55.47
2023-05-10T03:36:37.998Z,55.62
2023-05-10T03:39:04.561Z,55.70
2023-05-10T03:41:31.162Z,55.61
2023-05-10T03:43:57.514Z,55.76
2023-05-10T03:46:23.876Z,55.80
2023-05-10T03:48:50.609Z,55.83
2023-05-10T03:51:16.937Z,55.67
2023-05-10T03:53:43.454Z,55.58
2023-05-10T03:56:09.890Z,55.70
2023-05-10T03:58:36.924Z,55.59
2023-05-10T04:01:03.628Z,55.62
2023-05-10T04:03:30.283Z,55.68
2023-05-10T04:06:01.730Z,55.72
2023-05-10T04:08:29.312Z,55.66
2023-05-10T04:11:07.853Z,55.66
2023-05-10T04:13:34.807Z,55.59
2023-05-10T04:16:01.626Z,55.49
2023-05-10T04:18:28.042Z,55.52
2023-05-10T04:20:54.423Z,55.47
2023-05-10T04:23:20.844Z,55.44
2023-05-10T04:25:47.199Z,55.38
2023-05-10T04:28:13.581Z,55.31
2023-05-10T04:30:40.730Z,55.19
2023-05-10T04:33:07.400Z,55.30
2023-05-10T04:35:34.528Z,55.16
2023-05-10T04:38:00.837Z,54.98
2023-05-10T04:40:27.408Z,54.95
2023-05-10T04:42:53.816Z,54.89
2023-05-10T04:45:20.168Z,54.82
2023-05-10T04:47:46.505Z,54.69
2023-05-10T04:50:13.008Z,54.71
2023-05-10T04:52:39.408Z,54.72
2023-05-10T04:55:08.251Z,54.52
2023-05-10T04:57:34.811Z,54.53
2023-05-10T05:00:02.035Z,54.44
2023-05-10T05:02:28.427Z,54.34
2023-05-10T05:04:57.979Z,53.92
2023-05-10T05:07:24.299Z,54.03
2023-05-10T05:09:50.756Z,54.08
2023-05-10T05:12:17.227Z,54.01
2023-05-10T05:14:43.725Z,53.68
2023-05-10T05:17:10.251Z,53.46
2023-05-10T05:19:37.198Z,53.30
2023-05-10T05:22:03.637Z,53.16
2023-05-10T05:24:30.090Z,53.05
2023-05-10T05:26:56.515Z,52.80
2023-05-10T05:29:22.888Z,52.43
2023-05-10T05:31:49.279Z,52.55
2023-05-10T05:34:15.757Z,52.19
2023-05-10T05:36:42.324Z,52.09
2023-05-10T05:39:08.634Z,51.79
2023-05-10T05:41:35.229Z,51.90
2023-05-10T05:44:01.574Z,51.77
2023-05-10T05:46:28.081Z,51.68
2023-05-10T05:48:54.473Z,51.29
2023-05-10T05:51:20.797Z,51.04
2023-05-10T05:53:47.222Z,50.89
2023-05-10T05:56:13.642Z,50.37
2023-05-10T05:58:40.084Z,50.48
2023-05-10T06:01:06.889Z,50.30
2023-05-10T06:03:33.558Z,49.92
2023-05-10T06:06:00.066Z,49.83
2023-05-10T06:08:26.470Z,49.37
2023-05-10T06:10:52.973Z,48.61
2023-05-10T06:13:19.330Z,47.70
2023-05-10T06:15:45.787Z,47.48
2023-05-10T06:18:12.333Z,47.15
2023-05-10T06:20:38.743Z,46.82
2023-05-10T06:23:05.241Z,46.61
2023-05-10T06:25:31.664Z,45.99
2023-05-10T06:27:58.599Z,45.75
2023-05-10T06:30:28.661Z,45.35
2023-05-10T06:32:55.715Z,44.77
2023-05-10T06:35:22.570Z,44.97
2023-05-10T06:37:49.856Z,44.62
2023-05-10T06:40:16.531Z,44.49
2023-05-10T06:42:42.937Z,44.21
2023-05-10T06:45:10.205Z,43.97
2023-05-10T06:47:38.776Z,44.00
2023-05-10T06:50:06.846Z,43.87
2023-05-10T06:52:33.185Z,43.44
2023-05-10T06:55:00.560Z,43.30
2023-05-10T06:57:31.695Z,43.18
2023-05-10T06:59:59.297Z,42.95
2023-05-10T07:02:25.843Z,42.52
2023-05-10T07:04:52.848Z,42.78
2023-05-10T07:07:20.072Z,42.93
2023-05-10T07:09:46.528Z,41.95
2023-05-10T07:12:14.997Z,41.77
2023-05-10T07:14:42.854Z,41.75
2023-05-10T07:17:10.307Z,41.73
2023-05-10T07:19:36.783Z,41.67
2023-05-10T07:22:03.381Z,41.19
2023-05-10T07:24:30.325Z,41.13
2023-05-10T07:26:56.635Z,40.82
2023-05-10T07:29:23.056Z,41.04
2023-05-10T07:31:49.383Z,41.45
2023-05-10T07:34:16.170Z,40.26
2023-05-10T07:36:42.568Z,40.54
2023-05-10T07:39:09.039Z,40.21
2023-05-10T07:41:36.055Z,39.66
2023-05-10T07:44:02.733Z,39.45
2023-05-10T07:46:29.188Z,39.83
2023-05-10T07:48:56.129Z,39.49
2023-05-10T07:51:22.876Z,39.27
2023-05-10T07:53:49.413Z,38.56
2023-05-10T07:56:23.445Z,38.72
2023-05-10T07:58:50.185Z,39.21
2023-05-10T13:02:39.049Z,30.28
2023-05-10T13:05:07.532Z,30.05
2023-05-10T13:07:35.266Z,30.31
2023-05-10T13:10:03.041Z,30.40
2023-05-10T13:12:30.838Z,30.04
2023-05-10T13:14:58.628Z,30.50
2023-05-10T13:17:27.021Z,30.23
2023-05-10T13:19:54.834Z,29.84
2023-05-10T13:22:32.389Z,29.54
2023-05-10T13:25:04.488Z,29.20
2023-05-10T13:27:32.212Z,29.19
2023-05-10T13:30:00.527Z,28.84
2023-05-10T13:32:28.317Z,28.83
2023-05-10T13:34:56.620Z,28.82
2023-05-10T13:37:24.377Z,28.83
2023-05-10T13:39:52.624Z,29.14
2023-05-10T13:42:20.810Z,29.24
2023-05-10T13:44:48.530Z,29.48
2023-05-10T13:47:16.754Z,29.89
2023-05-10T13:49:44.552Z,29.89
2023-05-10T13:52:13.000Z,29.66
2023-05-10T13:54:40.957Z,29.92
2023-05-10T13:57:08.734Z,29.55
2023-05-10T13:59:36.547Z,29.63
2023-05-10T14:02:04.702Z,29.88
2023-05-10T14:04:32.950Z,29.87
2023-05-10T14:07:01.524Z,29.81
2023-05-10T14:09:29.391Z,29.84
2023-05-10T14:11:57.244Z,29.78
2023-05-10T14:14:25.324Z,29.65
2023-05-10T14:16:53.135Z,29.43
2023-05-10T14:19:20.902Z,29.40
2023-05-10T14:21:48.647Z,29.28
2023-05-10T14:24:16.504Z,29.30
2023-05-10T14:26:44.267Z,29.51
2023-05-10T14:29:12.730Z,29.41
2023-05-10T14:31:41.526Z,29.30
2023-05-10T14:34:09.316Z,29.07
2023-05-10T14:36:37.087Z,28.51
2023-05-10T14:39:05.042Z,27.15
2023-05-10T14:41:33.197Z,26.85
2023-05-10T14:44:00.902Z,27.06
2023-05-10T14:46:29.004Z,27.30
2023-05-10T14:48:57.051Z,26.87
2023-05-10T14:51:24.701Z,26.57
2023-05-10T14:53:52.539Z,26.60
2023-05-10T14:56:22.506Z,26.84
2023-05-10T14:58:51.075Z,27.37
2023-05-10T15:01:20.083Z,28.15
2023-05-10T15:03:48.306Z,28.04
2023-05-10T15:06:19.220Z,27.56
2023-05-10T15:08:47.098Z,26.80
2023-05-10T15:11:14.811Z,25.97
2023-05-10T15:13:42.630Z,25.44
2023-05-10T15:16:10.447Z,25.59
2023-05-10T15:18:38.340Z,25.23
2023-05-10T15:21:06.076Z,23.73
2023-05-10T15:23:33.937Z,22.92
2023-05-10T15:26:02.019Z,22.17
2023-05-10T15:28:31.111Z,22.51
2023-05-10T15:31:01.322Z,22.62
2023-05-10T15:33:29.729Z,22.46
2023-05-10T15:35:57.558Z,20.83
2023-05-10T15:38:25.340Z,20.67
2023-05-10T15:40:57.590Z,19.91
2023-05-10T15:43:25.539Z,18.88
2023-05-10T15:45:53.407Z,18.74
2023-05-10T15:48:21.142Z,18.46
2023-05-10T15:50:48.896Z,18.27
2023-05-10T15:53:16.595Z,18.16
2023-05-10T15:55:44.315Z,18.05
2023-05-10T15:58:12.121Z,17.72
2023-05-10T16:00:39.906Z,16.94
2023-05-10T16:03:08.359Z,16.65
2023-05-10T16:05:36.251Z,16.75
2023-05-10T16:08:04.032Z,17.23
2023-05-10T16:10:33.375Z,16.96
2023-05-10T16:13:02.500Z,17.07
2023-05-10T16:15:30.246Z,17.18
2023-05-10T16:17:58.487Z,17.07
2023-05-10T16:20:27.017Z,16.83
2023-05-10T16:22:54.829Z,16.20
2023-05-10T16:25:22.615Z,16.95
2023-05-10T16:27:51.175Z,18.20
2023-05-10T16:30:20.079Z,19.16
2023-05-10T16:32:48.741Z,19.96
2023-05-10T16:35:17.093Z,20.72
2023-05-10T16:37:45.121Z,21.49
2023-05-10T16:40:13.236Z,21.28
2023-05-10T16:42:41.445Z,21.93
2023-05-10T16:45:09.807Z,22.77
2023-05-10T16:47:39.646Z,23.72
2023-05-10T16:50:08.393Z,24.44
2023-05-10T16:52:37.191Z,25.22
2023-05-10T16:55:05.580Z,25.83
2023-05-10T16:57:33.484Z,26.12
2023-05-10T17:00:01.541Z,26.17
2023-05-10T17:02:29.878Z,25.47
2023-05-10T17:04:57.924Z,24.88
2023-05-10T17:07:26.485Z,25.36
2023-05-10T17:09:54.311Z,25.49
2023-05-10T17:12:22.241Z,25.13
2023-05-10T17:14:50.355Z,25.03
2023-05-10T17:17:18.433Z,25.65
2023-05-10T17:19:46.732Z,26.27
2023-05-10T17:22:15.421Z,26.86
2023-05-10T17:24:43.798Z,27.40
2023-05-10T17:27:11.979Z,27.31
2023-05-10T17:29:40.768Z,27.74
2023-05-10T17:32:11.738Z,28.13
2023-05-10T17:34:40.135Z,28.56
2023-05-10T17:37:09.432Z,28.96
2023-05-10T17:39:39.329Z,29.28
2023-05-10T17:42:08.415Z,29.77
2023-05-10T17:44:36.504Z,29.97
2023-05-10T17:47:04.625Z,30.51
2023-05-10T17:49:32.639Z,30.77
2023-05-10T17:52:01.021Z,31.19
2023-05-10T17:54:29.557Z,31.57
2023-05-10T17:56:58.197Z,31.82
2023-05-10T17:59:26.779Z,32.05
2023-05-10T18:01:54.874Z,32.47
2023-05-10T18:04:23.066Z,32.61
2023-05-10T18:06:51.464Z,32.89
2023-05-10T18:09:21.151Z,33.03
2023-05-10T18:11:48.977Z,33.44
2023-05-10T18:14:28.287Z,33.71
2023-05-10T18:17:04.315Z,33.98
2023-05-10T18:19:32.352Z,34.32
2023-05-10T18:22:00.228Z,34.35
2023-05-10T18:24:38.499Z,34.54
2023-05-10T18:27:10.882Z,34.73
2023-05-10T18:29:39.429Z,35.22
2023-05-10T18:32:07.531Z,35.46
2023-05-10T18:34:35.419Z,35.75
2023-05-10T18:37:07.934Z,36.05
2023-05-10T18:39:39.474Z,36.13
2023-05-10T18:42:07.774Z,36.52
2023-05-10T18:44:35.905Z,36.48
2023-05-10T18:47:04.205Z,36.68
2023-05-10T18:49:32.544Z,36.82
2023-05-10T18:52:00.849Z,37.11
2023-05-10T18:54:29.934Z,37.12
2023-05-10T18:56:58.844Z,37.20
2023-05-10T18:59:28.170Z,37.38
2023-05-10T19:01:57.526Z,37.53
2023-05-10T19:04:26.292Z,37.81
2023-05-10T19:06:55.909Z,37.95
2023-05-10T19:09:24.264Z,38.20
2023-05-10T19:11:52.324Z,38.22
2023-05-10T19:14:20.913Z,38.43
2023-05-10T19:16:48.778Z,38.69
2023-05-10T19:19:19.423Z,38.97
2023-05-10T19:21:47.712Z,39.33
2023-05-10T19:24:15.779Z,39.84
2023-05-10T19:26:43.871Z,40.27
2023-05-10T19:29:11.956Z,40.47
2023-05-10T19:31:40.146Z,40.24
2023-05-10T19:34:07.984Z,40.45
2023-05-10T19:36:36.078Z,40.59
2023-05-10T19:39:03.852Z,40.84
2023-05-10T19:41:31.581Z,41.40
2023-05-10T19:43:59.932Z,41.70
2023-05-10T19:46:27.757Z,42.26
2023-05-10T19:48:55.519Z,42.59
2023-05-10T19:51:23.294Z,43.16
2023-05-10T19:53:50.992Z,43.32
2023-05-10T19:56:18.888Z,43.72
2023-05-10T19:58:46.740Z,43.65
2023-05-10T20:01:14.726Z,44.15
2023-05-10T20:03:42.567Z,44.29
2023-05-10T20:06:10.959Z,44.63
2023-05-10T20:08:38.685Z,45.10
2023-05-10T20:11:06.500Z,45.35
2023-05-10T20:13:34.257Z,45.79
2023-05-10T20:16:02.513Z,46.08
2023-05-10T20:18:30.409Z,46.51
2023-05-10T20:21:00.005Z,47.58
2023-05-10T20:23:27.871Z,47.26
2023-05-10T20:25:55.718Z,46.91
2023-05-10T20:28:25.404Z,47.33
2023-05-10T20:30:54.890Z,46.84
2023-05-10T20:33:22.962Z,46.34
2023-05-10T20:35:51.490Z,46.02
2023-05-10T20:38:19.361Z,45.90
2023-05-10T20:40:47.300Z,46.07
2023-05-10T20:43:15.106Z,46.28
2023-05-10T20:45:42.813Z,46.15
2023-05-10T20:48:10.582Z,46.10
2023-05-10T20:50:38.315Z,46.44
2023-05-10T20:53:06.125Z,46.18
2023-05-10T20:55:33.898Z,46.06
2023-05-10T20:58:04.120Z,45.75
2023-05-10T21:00:32.683Z,45.85
2023-05-10T21:03:00.530Z,45.72
2023-05-10T21:05:28.447Z,45.87
2023-05-10T21:07:56.214Z,45.91
2023-05-10T21:10:25.555Z,46.19
2023-05-10T21:12:53.251Z,46.20
2023-05-10T21:15:22.653Z,46.43
2023-05-10T21:17:50.706Z,46.45
2023-05-10T21:20:18.756Z,46.31
2023-05-10T21:22:46.776Z,46.54
2023-05-10T21:25:14.664Z,46.32
2023-05-10T21:27:42.461Z,46.27
2023-05-10T21:30:10.750Z,46.17
2023-05-10T21:32:38.741Z,46.11
2023-05-10T21:35:07.157Z,45.95
2023-05-10T21:37:34.862Z,45.79
2023-05-10T21:40:03.206Z,45.80
2023-05-10T21:42:31.806Z,45.86
2023-05-10T21:44:59.479Z,45.87
2023-05-10T21:47:27.534Z,45.92
2023-05-10T21:49:55.400Z,45.97
2023-05-10T21:52:23.115Z,45.91
2023-05-10T21:54:50.872Z,46.03
2023-05-10T21:57:18.822Z,45.96
2023-05-10T21:59:46.589Z,46.09
2023-05-10T22:02:14.453Z,46.07
2023-05-10T22:04:42.284Z,45.97
2023-05-10T22:07:10.087Z,45.90
2023-05-10T22:09:37.773Z,45.92
2023-05-10T22:12:05.796Z,45.96
2023-05-10T22:14:33.532Z,45.89
2023-05-10T22:17:01.322Z,46.12
2023-05-10T22:19:29.162Z,46.11
2023-05-10T22:21:56.862Z,46.07
2023-05-10T22:24:24.592Z,46.02
2023-05-10T22:26:55.023Z,46.05
2023-05-10T22:29:23.509Z,46.14
2023-05-10T22:31:51.219Z,46.02
2023-05-10T22:34:18.923Z,46.06
2023-05-10T22:36:46.740Z,46.18
2023-05-10T22:39:14.506Z,46.00
2023-05-10T22:41:42.666Z,45.73
2023-05-10T22:44:10.484Z,45.88
2023-05-10T22:46:38.576Z,45.78
2023-05-10T22:49:06.919Z,45.83
2023-05-10T22:51:34.665Z,45.94
2023-05-10T22:54:02.495Z,45.95
2023-05-10T22:56:31.014Z,45.93
2023-05-10T22:58:58.854Z,45.91
2023-05-10T23:01:26.603Z,45.86
2023-05-10T23:03:54.468Z,45.90
2023-05-10T23:06:22.340Z,45.85
2023-05-10T23:08:50.097Z,45.97
2023-05-10T23:11:17.891Z,46.02
2023-05-10T23:13:45.645Z,45.88
2023-05-10T23:16:13.862Z,45.91
2023-05-10T23:18:41.815Z,45.95
2023-05-10T23:21:09.811Z,45.99
2023-05-10T23:23:37.705Z,46.14
2023-05-10T23:26:05.612Z,46.01
2023-05-10T23:28:33.327Z,46.02
2023-05-10T23:31:01.216Z,46.13
2023-05-10T23:33:29.447Z,46.11
2023-05-10T23:35:57.222Z,46.17
2023-05-10T23:38:24.971Z,45.98
2023-05-10T23:40:52.741Z,46.22
2023-05-10T23:43:21.806Z,46.31
2023-05-10T23:45:56.708Z,46.31
2023-05-10T23:48:24.677Z,46.40
2023-05-10T23:50:52.390Z,46.48
2023-05-10T23:53:20.094Z,46.39
2023-05-10T23:55:47.820Z,46.41
2023-05-10T23:58:15.657Z,46.47
